sensor_id;sensor_type;location;lat;lon;timestamp;temperature;humidity
33460;DHT22;19795;53.160;6.612;2022-09-21T03:43:15;5.00;99.90
33460;DHT22;19795;53.160;6.612;2022-09-21T03:45:41;5.00;99.90
33460;DHT22;19795;53.160;6.612;2022-09-21T03:48:30;5.00;99.90
33460;DHT22;19795;53.160;6.612;2022-09-21T03:50:57;4.90;99.90
33460;DHT22;19795;53.160;6.612;2022-09-21T03:53:22;5.00;99.90
33460;DHT22;19795;53.160;6.612;2022-09-21T03:55:48;4.90;99.90
33460;DHT22;19795;53.160;6.612;2022-09-21T03:58:14;4.90;99.90
33460;DHT22;19795;53.160;6.612;2022-09-21T04:00:40;4.90;99.90
33460;DHT22;19795;53.160;6.612;2022-09-21T04:03:07;4.80;99.90
33460;DHT22;19795;53.160;6.612;2022-09-21T04:05:33;4.90;99.90
33460;DHT22;19795;53.160;6.612;2022-09-21T04:07:58;5.00;99.90
33460;DHT22;19795;53.160;6.612;2022-09-21T04:10:26;4.90;99.90
33460;DHT22;19795;53.160;6.612;2022-09-21T04:12:59;4.90;99.90
33460;DHT22;19795;53.160;6.612;2022-09-21T04:15:25;4.80;99.90
33460;DHT22;19795;53.160;6.612;2022-09-21T04:17:52;4.80;99.90
33460;DHT22;19795;53.160;6.612;2022-09-21T04:20:19;4.90;99.90
33460;DHT22;19795;53.160;6.612;2022-09-21T04:22:45;4.80;99.90
33460;DHT22;19795;53.160;6.612;2022-09-21T04:25:12;4.90;99.90
33460;DHT22;19795;53.160;6.612;2022-09-21T04:27:38;4.80;99.90
33460;DHT22;19795;53.160;6.612;2022-09-21T04:30:04;4.80;99.90
33460;DHT22;19795;53.160;6.612;2022-09-21T04:32:30;4.80;99.90
33460;DHT22;19795;53.160;6.612;2022-09-21T04:34:56;4.70;99.90
33460;DHT22;19795;53.160;6.612;2022-09-21T04:37:22;4.60;99.90
33460;DHT22;19795;53.160;6.612;2022-09-21T04:39:48;4.70;99.90
33460;DHT22;19795;53.160;6.612;2022-09-21T04:42:14;4.60;99.90
33460;DHT22;19795;53.160;6.612;2022-09-21T04:44:39;4.60;99.90
33460;DHT22;19795;53.160;6.612;2022-09-21T04:47:05;4.50;99.90
33460;DHT22;19795;53.160;6.612;2022-09-21T04:49:31;4.50;99.90
33460;DHT22;19795;53.160;6.612;2022-09-21T04:51:56;4.60;99.90
33460;DHT22;19795;53.160;6.612;2022-09-21T04:54:22;4.60;99.90
33460;DHT22;19795;53.160;6.612;2022-09-21T04:56:48;4.60;99.90
33460;DHT22;19795;53.160;6.612;2022-09-21T04:59:14;4.60;99.90
33460;DHT22;19795;53.160;6.612;2022-09-21T05:01:39;4.50;99.90
33460;DHT22;19795;53.160;6.612;2022-09-21T05:04:05;4.50;99.90
33460;DHT22;19795;53.160;6.612;2022-09-21T05:06:32;4.50;99.90
33460;DHT22;19795;53.160;6.612;2022-09-21T05:08:58;4.50;99.90
33460;DHT22;19795;53.160;6.612;2022-09-21T05:11:42;4.50;99.90
33460;DHT22;19795;53.160;6.612;2022-09-21T05:14:08;4.50;99.90
33460;DHT22;19795;53.160;6.612;2022-09-21T05:16:34;4.50;99.90
33460;DHT22;19795;53.160;6.612;2022-09-21T05:19:00;4.50;99.90
33460;DHT22;19795;53.160;6.612;2022-09-21T05:21:26;4.40;99.90
33460;DHT22;19795;53.160;6.612;2022-09-21T05:23:52;4.50;99.90
33460;DHT22;19795;53.160;6.612;2022-09-21T05:26:18;4.50;99.90
33460;DHT22;19795;53.160;6.612;2022-09-21T05:28:44;4.60;99.90
33460;DHT22;19795;53.160;6.612;2022-09-21T05:31:35;4.50;99.90
33460;DHT22;19795;53.160;6.612;2022-09-21T05:34:33;4.60;99.90
33460;DHT22;19795;53.160;6.612;2022-09-21T05:37:09;4.60;99.90
33460;DHT22;19795;53.160;6.612;2022-09-21T05:39:37;4.60;99.90
33460;DHT22;19795;53.160;6.612;2022-09-21T05:42:03;4.60;99.90
33460;DHT22;19795;53.160;6.612;2022-09-21T05:44:29;4.70;99.90
33460;DHT22;19795;53.160;6.612;2022-09-21T05:47:14;4.70;99.90
33460;DHT22;19795;53.160;6.612;2022-09-21T05:49:58;4.70;99.90
33460;DHT22;19795;53.160;6.612;2022-09-21T05:52:35;4.80;99.90
33460;DHT22;19795;53.160;6.612;2022-09-21T05:55:31;4.80;99.90
33460;DHT22;19795;53.160;6.612;2022-09-21T06:01:27;5.00;99.90
33460;DHT22;19795;53.160;6.612;2022-09-21T06:03:54;5.00;99.90
33460;DHT22;19795;53.160;6.612;2022-09-21T06:06:21;5.10;99.90
33460;DHT22;19795;53.160;6.612;2022-09-21T06:08:46;5.30;99.90
33460;DHT22;19795;53.160;6.612;2022-09-21T06:11:12;5.50;99.90
33460;DHT22;19795;53.160;6.612;2022-09-21T06:13:38;5.40;99.90
33460;DHT22;19795;53.160;6.612;2022-09-21T06:16:06;5.40;99.90
33460;DHT22;19795;53.160;6.612;2022-09-21T06:18:37;5.50;99.90
33460;DHT22;19795;53.160;6.612;2022-09-21T06:21:03;5.60;99.90
33460;DHT22;19795;53.160;6.612;2022-09-21T06:23:29;5.70;99.90
33460;DHT22;19795;53.160;6.612;2022-09-21T06:25:55;5.70;99.90
33460;DHT22;19795;53.160;6.612;2022-09-21T06:28:20;5.80;99.90
33460;DHT22;19795;53.160;6.612;2022-09-21T06:30:53;6.00;99.90
33460;DHT22;19795;53.160;6.612;2022-09-21T06:33:20;6.10;99.90
33460;DHT22;19795;53.160;6.612;2022-09-21T06:35:55;6.20;99.90
33460;DHT22;19795;53.160;6.612;2022-09-21T06:38:21;6.30;99.90
33460;DHT22;19795;53.160;6.612;2022-09-21T06:40:49;6.40;99.90
33460;DHT22;19795;53.160;6.612;2022-09-21T06:43:15;6.50;99.90
33460;DHT22;19795;53.160;6.612;2022-09-21T06:45:40;6.60;99.90
33460;DHT22;19795;53.160;6.612;2022-09-21T06:48:06;6.80;99.90
33460;DHT22;19795;53.160;6.612;2022-09-21T06:50:32;6.90;99.90
33460;DHT22;19795;53.160;6.612;2022-09-21T06:53:02;7.20;99.90
33460;DHT22;19795;53.160;6.612;2022-09-21T06:55:28;7.40;99.90
33460;DHT22;19795;53.160;6.612;2022-09-21T06:58:02;7.60;99.90
33460;DHT22;19795;53.160;6.612;2022-09-21T07:00:28;7.80;99.90
33460;DHT22;19795;53.160;6.612;2022-09-21T07:02:54;8.00;99.90
33460;DHT22;19795;53.160;6.612;2022-09-21T07:05:21;8.20;99.90
33460;DHT22;19795;53.160;6.612;2022-09-21T07:07:47;8.30;99.90
33460;DHT22;19795;53.160;6.612;2022-09-21T07:10:12;8.50;99.90
33460;DHT22;19795;53.160;6.612;2022-09-21T07:12:38;8.80;99.90
33460;DHT22;19795;53.160;6.612;2022-09-21T07:15:05;8.90;99.90
33460;DHT22;19795;53.160;6.612;2022-09-21T07:17:35;9.50;99.90
33460;DHT22;19795;53.160;6.612;2022-09-21T07:20:02;10.30;99.90
33460;DHT22;19795;53.160;6.612;2022-09-21T07:22:32;11.30;99.90
33460;DHT22;19795;53.160;6.612;2022-09-21T07:24:58;12.20;99.90
33460;DHT22;19795;53.160;6.612;2022-09-21T07:27:25;12.90;99.90
33460;DHT22;19795;53.160;6.612;2022-09-21T07:29:51;13.60;99.90
33460;DHT22;19795;53.160;6.612;2022-09-21T07:32:17;13.80;99.90
33460;DHT22;19795;53.160;6.612;2022-09-21T07:34:43;14.00;99.90
33460;DHT22;19795;53.160;6.612;2022-09-21T07:37:09;14.00;99.90
33460;DHT22;19795;53.160;6.612;2022-09-21T07:39:35;14.50;99.90
33460;DHT22;19795;53.160;6.612;2022-09-21T07:42:01;14.30;99.90
33460;DHT22;19795;53.160;6.612;2022-09-21T07:44:26;14.40;99.90
33460;DHT22;19795;53.160;6.612;2022-09-21T07:46:52;14.40;99.90
33460;DHT22;19795;53.160;6.612;2022-09-21T07:49:18;13.80;99.90
33460;DHT22;19795;53.160;6.612;2022-09-21T07:51:43;14.00;99.90
33460;DHT22;19795;53.160;6.612;2022-09-21T07:54:10;14.40;99.90
33460;DHT22;19795;53.160;6.612;2022-09-21T07:56:36;14.70;99.90
33460;DHT22;19795;53.160;6.612;2022-09-21T07:59:03;15.00;99.90
33460;DHT22;19795;53.160;6.612;2022-09-21T08:01:39;14.90;99.90
33460;DHT22;19795;53.160;6.612;2022-09-21T08:04:07;15.30;99.90
33460;DHT22;19795;53.160;6.612;2022-09-21T08:06:34;15.20;99.90
33460;DHT22;19795;53.160;6.612;2022-09-21T08:09:02;15.10;99.90
33460;DHT22;19795;53.160;6.612;2022-09-21T08:11:30;15.10;99.90
33460;DHT22;19795;53.160;6.612;2022-09-21T08:14:00;15.50;99.90
33460;DHT22;19795;53.160;6.612;2022-09-21T08:16:28;15.70;99.90
33460;DHT22;19795;53.160;6.612;2022-09-21T08:18:54;15.80;99.90
33460;DHT22;19795;53.160;6.612;2022-09-21T08:21:20;16.00;99.90
33460;DHT22;19795;53.160;6.612;2022-09-21T08:23:46;16.10;99.90
33460;DHT22;19795;53.160;6.612;2022-09-21T08:26:14;15.60;99.90
33460;DHT22;19795;53.160;6.612;2022-09-21T08:28:47;15.70;99.90
33460;DHT22;19795;53.160;6.612;2022-09-21T08:31:18;15.70;99.90
33460;DHT22;19795;53.160;6.612;2022-09-21T08:33:47;16.20;99.90
33460;DHT22;19795;53.160;6.612;2022-09-21T08:36:14;16.60;99.90
33460;DHT22;19795;53.160;6.612;2022-09-21T08:38:40;16.70;99.90
33460;DHT22;19795;53.160;6.612;2022-09-21T08:41:25;16.80;99.90
33460;DHT22;19795;53.160;6.612;2022-09-21T08:44:08;17.10;99.90
33460;DHT22;19795;53.160;6.612;2022-09-21T08:46:36;17.10;99.90
33460;DHT22;19795;53.160;6.612;2022-09-21T08:49:10;17.30;99.90
33460;DHT22;19795;53.160;6.612;2022-09-21T08:51:48;17.20;99.90
33460;DHT22;19795;53.160;6.612;2022-09-21T08:54:28;16.50;99.90
33460;DHT22;19795;53.160;6.612;2022-09-21T08:56:58;16.60;99.90
33460;DHT22;19795;53.160;6.612;2022-09-21T08:59:24;16.70;99.90
33460;DHT22;19795;53.160;6.612;2022-09-21T09:02:38;16.80;99.90
33460;DHT22;19795;53.160;6.612;2022-09-21T09:10:02;17.20;99.90
33460;DHT22;19795;53.160;6.612;2022-09-21T09:15:22;17.00;99.90
33460;DHT22;19795;53.160;6.612;2022-09-21T09:20:37;16.80;99.90
33460;DHT22;19795;53.160;6.612;2022-09-21T09:23:21;16.70;99.90
33460;DHT22;19795;53.160;6.612;2022-09-21T09:25:50;16.70;99.90
33460;DHT22;19795;53.160;6.612;2022-09-21T09:28:35;17.00;99.90
33460;DHT22;19795;53.160;6.612;2022-09-21T09:34:06;17.00;99.90
33460;DHT22;19795;53.160;6.612;2022-09-21T09:36:34;17.20;99.90
33460;DHT22;19795;53.160;6.612;2022-09-21T09:39:02;17.20;99.90
33460;DHT22;19795;53.160;6.612;2022-09-21T09:41:42;17.40;99.90
33460;DHT22;19795;53.160;6.612;2022-09-21T09:44:19;17.50;99.90
33460;DHT22;19795;53.160;6.612;2022-09-21T09:50:23;18.10;99.90
33460;DHT22;19795;53.160;6.612;2022-09-21T09:52:51;18.30;99.90
33460;DHT22;19795;53.160;6.612;2022-09-21T09:55:22;18.30;99.90
33460;DHT22;19795;53.160;6.612;2022-09-21T09:57:49;17.70;99.90
33460;DHT22;19795;53.160;6.612;2022-09-21T10:00:17;16.90;99.90
33460;DHT22;19795;53.160;6.612;2022-09-21T10:02:57;16.70;99.90
33460;DHT22;19795;53.160;6.612;2022-09-21T10:05:32;17.40;99.90
33460;DHT22;19795;53.160;6.612;2022-09-21T10:07:59;18.00;99.90
33460;DHT22;19795;53.160;6.612;2022-09-21T10:12:55;18.40;99.90
33460;DHT22;19795;53.160;6.612;2022-09-21T10:15:23;18.40;99.90
33460;DHT22;19795;53.160;6.612;2022-09-21T10:18:10;18.10;99.90
33460;DHT22;19795;53.160;6.612;2022-09-21T10:20:52;17.50;99.90
33460;DHT22;19795;53.160;6.612;2022-09-21T10:23:18;17.80;99.90
33460;DHT22;19795;53.160;6.612;2022-09-21T10:26:09;18.90;99.90
33460;DHT22;19795;53.160;6.612;2022-09-21T10:28:54;19.70;99.90
33460;DHT22;19795;53.160;6.612;2022-09-21T10:31:29;19.50;99.90
33460;DHT22;19795;53.160;6.612;2022-09-21T10:34:14;19.70;99.90
33460;DHT22;19795;53.160;6.612;2022-09-21T10:36:49;19.60;99.90
33460;DHT22;19795;53.160;6.612;2022-09-21T10:39:25;20.10;99.90
33460;DHT22;19795;53.160;6.612;2022-09-21T10:42:06;20.10;99.90
33460;DHT22;19795;53.160;6.612;2022-09-21T10:44:51;20.20;99.60
33460;DHT22;19795;53.160;6.612;2022-09-21T10:49:51;18.30;99.90
33460;DHT22;19795;53.160;6.612;2022-09-21T10:52:20;17.50;99.90
33460;DHT22;19795;53.160;6.612;2022-09-21T10:54:48;16.90;99.90
33460;DHT22;19795;53.160;6.612;2022-09-21T10:57:18;16.30;99.90
33460;DHT22;19795;53.160;6.612;2022-09-21T10:59:45;16.80;99.90
33460;DHT22;19795;53.160;6.612;2022-09-21T11:02:27;18.10;99.90
33460;DHT22;19795;53.160;6.612;2022-09-21T11:07:36;20.00;99.90
33460;DHT22;19795;53.160;6.612;2022-09-21T11:16:12;19.70;98.70
33460;DHT22;19795;53.160;6.612;2022-09-21T11:18:21;19.20;97.70
33460;DHT22;19795;53.160;6.612;2022-09-21T11:20:52;19.40;99.90
33460;DHT22;19795;53.160;6.612;2022-09-21T11:23:28;19.70;99.90
33460;DHT22;19795;53.160;6.612;2022-09-21T11:34:59;20.30;97.50
33460;DHT22;19795;53.160;6.612;2022-09-21T11:42:37;19.10;99.90
33460;DHT22;19795;53.160;6.612;2022-09-21T11:50:49;19.00;98.20
33460;DHT22;19795;53.160;6.612;2022-09-21T12:15:11;20.00;96.00
33460;DHT22;19795;53.160;6.612;2022-09-21T12:18:09;19.90;95.50
33460;DHT22;19795;53.160;6.612;2022-09-21T12:23:22;19.80;98.40
33460;DHT22;19795;53.160;6.612;2022-09-21T12:25:55;19.90;98.80
33460;DHT22;19795;53.160;6.612;2022-09-21T12:28:42;20.10;99.90
33460;DHT22;19795;53.160;6.612;2022-09-21T12:31:23;20.60;98.60
33460;DHT22;19795;53.160;6.612;2022-09-21T12:34:17;20.40;99.90
33460;DHT22;19795;53.160;6.612;2022-09-21T12:42:47;20.90;98.30
33460;DHT22;19795;53.160;6.612;2022-09-21T12:45:31;20.10;99.80
33460;DHT22;19795;53.160;6.612;2022-09-21T12:48:28;19.00;99.90
33460;DHT22;19795;53.160;6.612;2022-09-21T12:50:58;18.30;99.90
33460;DHT22;19795;53.160;6.612;2022-09-21T12:53:27;17.60;99.90
33460;DHT22;19795;53.160;6.612;2022-09-21T12:56:00;17.60;99.90
33460;DHT22;19795;53.160;6.612;2022-09-21T12:58:56;18.20;99.90
33460;DHT22;19795;53.160;6.612;2022-09-21T13:09:09;18.70;98.60
33460;DHT22;19795;53.160;6.612;2022-09-21T13:12:05;18.10;99.90
33460;DHT22;19795;53.160;6.612;2022-09-21T13:14:33;17.60;99.90
33460;DHT22;19795;53.160;6.612;2022-09-21T13:17:03;17.30;99.90
33460;DHT22;19795;53.160;6.612;2022-09-21T13:19:34;17.30;99.90
33460;DHT22;19795;53.160;6.612;2022-09-21T13:24:59;17.40;99.90
33460;DHT22;19795;53.160;6.612;2022-09-21T13:30:37;18.10;99.90
33460;DHT22;19795;53.160;6.612;2022-09-21T13:38:31;17.90;99.90
33460;DHT22;19795;53.160;6.612;2022-09-21T13:41:01;17.70;99.90
33460;DHT22;19795;53.160;6.612;2022-09-21T13:49:24;17.50;99.90
33460;DHT22;19795;53.160;6.612;2022-09-21T13:52:01;17.50;99.90
33460;DHT22;19795;53.160;6.612;2022-09-21T13:54:48;17.30;99.90
33460;DHT22;19795;53.160;6.612;2022-09-21T13:57:40;17.10;99.90
33460;DHT22;19795;53.160;6.612;2022-09-21T14:02:41;16.60;99.90
33460;DHT22;19795;53.160;6.612;2022-09-21T14:08:00;16.20;99.90
33460;DHT22;19795;53.160;6.612;2022-09-21T14:10:28;16.10;99.90
33460;DHT22;19795;53.160;6.612;2022-09-21T14:12:57;16.00;99.90
33460;DHT22;19795;53.160;6.612;2022-09-21T14:21:10;15.70;99.90
33460;DHT22;19795;53.160;6.612;2022-09-21T14:26:49;15.90;99.90
33460;DHT22;19795;53.160;6.612;2022-09-21T14:29:25;15.90;99.90
33460;DHT22;19795;53.160;6.612;2022-09-21T14:31:56;16.20;99.90
33460;DHT22;19795;53.160;6.612;2022-09-21T14:34:30;16.20;99.90
33460;DHT22;19795;53.160;6.612;2022-09-21T14:36:58;16.20;99.90
33460;DHT22;19795;53.160;6.612;2022-09-21T14:39:39;16.50;99.90
33460;DHT22;19795;53.160;6.612;2022-09-21T14:42:12;16.60;99.90
33460;DHT22;19795;53.160;6.612;2022-09-21T14:44:42;16.70;99.90
33460;DHT22;19795;53.160;6.612;2022-09-21T15:00:47;17.30;99.90
33460;DHT22;19795;53.160;6.612;2022-09-21T15:03:51;17.20;99.90
33460;DHT22;19795;53.160;6.612;2022-09-21T15:06:27;17.30;99.90
33460;DHT22;19795;53.160;6.612;2022-09-21T15:12:57;18.00;99.90
33460;DHT22;19795;53.160;6.612;2022-09-21T15:18:20;18.40;98.40
33460;DHT22;19795;53.160;6.612;2022-09-21T15:21:01;18.70;97.80
33460;DHT22;19795;53.160;6.612;2022-09-21T15:23:33;18.80;97.50
33460;DHT22;19795;53.160;6.612;2022-09-21T15:26:09;18.60;97.20
33460;DHT22;19795;53.160;6.612;2022-09-21T15:28:41;18.50;98.30
33460;DHT22;19795;53.160;6.612;2022-09-21T15:31:08;18.20;99.90
33460;DHT22;19795;53.160;6.612;2022-09-21T15:33:37;17.90;99.80
33460;DHT22;19795;53.160;6.612;2022-09-21T15:36:04;17.70;99.90
33460;DHT22;19795;53.160;6.612;2022-09-21T15:38:32;17.50;99.90
33460;DHT22;19795;53.160;6.612;2022-09-21T15:41:01;17.40;99.90
33460;DHT22;19795;53.160;6.612;2022-09-21T15:43:27;17.20;99.90
33460;DHT22;19795;53.160;6.612;2022-09-21T15:46:00;17.10;99.90
33460;DHT22;19795;53.160;6.612;2022-09-21T15:53:54;16.80;99.90
33460;DHT22;19795;53.160;6.612;2022-09-21T15:56:30;16.60;99.90
33460;DHT22;19795;53.160;6.612;2022-09-21T15:59:03;16.50;99.90
33460;DHT22;19795;53.160;6.612;2022-09-21T16:01:44;16.40;99.90
33460;DHT22;19795;53.160;6.612;2022-09-21T16:04:16;16.40;99.90
33460;DHT22;19795;53.160;6.612;2022-09-21T16:06:45;16.40;99.90
33460;DHT22;19795;53.160;6.612;2022-09-21T16:11:54;16.10;99.90
33460;DHT22;19795;53.160;6.612;2022-09-21T16:14:19;16.10;99.90
33460;DHT22;19795;53.160;6.612;2022-09-21T16:20:10;16.00;99.90
33460;DHT22;19795;53.160;6.612;2022-09-21T16:22:44;16.00;99.90
33460;DHT22;19795;53.160;6.612;2022-09-21T16:25:31;16.00;99.90
33460;DHT22;19795;53.160;6.612;2022-09-21T16:30:52;15.70;99.90
33460;DHT22;19795;53.160;6.612;2022-09-21T16:38:59;15.40;99.90
33460;DHT22;19795;53.160;6.612;2022-09-21T16:41:44;15.20;99.90
33460;DHT22;19795;53.160;6.612;2022-09-21T16:44:16;15.10;99.90
33460;DHT22;19795;53.160;6.612;2022-09-21T16:46:59;15.00;99.90
33460;DHT22;19795;53.160;6.612;2022-09-21T16:49:28;14.90;99.90
33460;DHT22;19795;53.160;6.612;2022-09-21T16:51:57;14.80;99.90
33460;DHT22;19795;53.160;6.612;2022-09-21T16:54:24;14.70;99.90
33460;DHT22;19795;53.160;6.612;2022-09-21T16:56:53;14.60;99.90
33460;DHT22;19795;53.160;6.612;2022-09-21T16:59:20;14.50;99.90
33460;DHT22;19795;53.160;6.612;2022-09-21T17:01:48;14.30;99.90
33460;DHT22;19795;53.160;6.612;2022-09-21T17:04:16;14.30;99.90
33460;DHT22;19795;53.160;6.612;2022-09-21T17:06:42;14.20;99.90
33460;DHT22;19795;53.160;6.612;2022-09-21T17:09:17;14.00;99.90
33460;DHT22;19795;53.160;6.612;2022-09-21T17:11:43;14.00;99.90
33460;DHT22;19795;53.160;6.612;2022-09-21T17:14:11;14.00;99.90
33460;DHT22;19795;53.160;6.612;2022-09-21T17:16:46;13.80;99.90
33460;DHT22;19795;53.160;6.612;2022-09-21T17:19:12;13.70;99.90
33460;DHT22;19795;53.160;6.612;2022-09-21T17:21:38;13.60;99.90
33460;DHT22;19795;53.160;6.612;2022-09-21T17:24:04;13.50;99.90
33460;DHT22;19795;53.160;6.612;2022-09-21T17:26:31;13.30;99.90
33460;DHT22;19795;53.160;6.612;2022-09-21T17:28:58;13.10;99.90
33460;DHT22;19795;53.160;6.612;2022-09-21T17:31:24;12.90;99.90
33460;DHT22;19795;53.160;6.612;2022-09-21T17:33:50;12.70;99.90
33460;DHT22;19795;53.160;6.612;2022-09-21T17:36:16;12.50;99.90
33460;DHT22;19795;53.160;6.612;2022-09-21T17:38:43;12.30;99.90
33460;DHT22;19795;53.160;6.612;2022-09-21T17:44:09;12.00;99.90
33460;DHT22;19795;53.160;6.612;2022-09-21T17:46:45;11.80;99.90
33460;DHT22;19795;53.160;6.612;2022-09-21T17:49:12;11.70;99.90
33460;DHT22;19795;53.160;6.612;2022-09-21T17:51:37;11.70;99.90
33460;DHT22;19795;53.160;6.612;2022-09-21T17:54:22;11.60;99.90
33460;DHT22;19795;53.160;6.612;2022-09-21T18:00:02;11.40;99.90
33460;DHT22;19795;53.160;6.612;2022-09-21T18:02:28;11.30;99.90
33460;DHT22;19795;53.160;6.612;2022-09-21T18:04:59;11.10;99.90
33460;DHT22;19795;53.160;6.612;2022-09-21T18:07:27;11.00;99.90
33460;DHT22;19795;53.160;6.612;2022-09-21T18:09:53;11.00;99.90
33460;DHT22;19795;53.160;6.612;2022-09-21T18:15:49;10.90;99.90
33460;DHT22;19795;53.160;6.612;2022-09-21T18:18:33;10.80;99.90
33460;DHT22;19795;53.160;6.612;2022-09-21T18:21:20;10.70;99.90
33460;DHT22;19795;53.160;6.612;2022-09-21T18:23:51;10.60;99.90
33460;DHT22;19795;53.160;6.612;2022-09-21T18:26:21;10.50;99.90
33460;DHT22;19795;53.160;6.612;2022-09-21T18:28:48;10.50;99.90
33460;DHT22;19795;53.160;6.612;2022-09-21T18:40:27;10.40;99.90
33460;DHT22;19795;53.160;6.612;2022-09-21T18:45:40;10.20;99.90
33460;DHT22;19795;53.160;6.612;2022-09-21T18:51:12;10.10;99.90
33460;DHT22;19795;53.160;6.612;2022-09-21T18:53:48;10.10;99.90
33460;DHT22;19795;53.160;6.612;2022-09-21T18:56:14;10.00;99.90
33460;DHT22;19795;53.160;6.612;2022-09-21T18:58:41;10.00;99.90
33460;DHT22;19795;53.160;6.612;2022-09-21T19:01:12;9.90;99.90
33460;DHT22;19795;53.160;6.612;2022-09-21T19:03:39;9.80;99.90
33460;DHT22;19795;53.160;6.612;2022-09-21T19:15:34;9.50;99.90
33460;DHT22;19795;53.160;6.612;2022-09-21T19:18:27;9.50;99.90
33460;DHT22;19795;53.160;6.612;2022-09-21T19:23:29;9.50;99.90
33460;DHT22;19795;53.160;6.612;2022-09-21T19:26:10;9.40;99.90
33460;DHT22;19795;53.160;6.612;2022-09-21T19:28:49;9.30;99.90
33460;DHT22;19795;53.160;6.612;2022-09-21T19:31:17;9.30;99.90
33460;DHT22;19795;53.160;6.612;2022-09-21T19:33:44;9.20;99.90
33460;DHT22;19795;53.160;6.612;2022-09-21T19:36:11;9.00;99.90
33460;DHT22;19795;53.160;6.612;2022-09-21T19:38:37;9.00;99.90
33460;DHT22;19795;53.160;6.612;2022-09-21T19:47:21;9.00;99.90
33460;DHT22;19795;53.160;6.612;2022-09-21T19:49:51;8.90;99.90
33460;DHT22;19795;53.160;6.612;2022-09-21T19:52:28;8.80;99.90
33460;DHT22;19795;53.160;6.612;2022-09-21T19:54:56;8.80;99.90
33460;DHT22;19795;53.160;6.612;2022-09-21T19:57:48;8.70;99.90
33460;DHT22;19795;53.160;6.612;2022-09-21T20:00:32;8.70;99.90
33460;DHT22;19795;53.160;6.612;2022-09-21T20:11:23;8.70;99.90
33460;DHT22;19795;53.160;6.612;2022-09-21T20:14:17;8.60;99.90
33460;DHT22;19795;53.160;6.612;2022-09-21T20:16:53;8.60;99.90
33460;DHT22;19795;53.160;6.612;2022-09-21T20:21:58;8.60;99.90
33460;DHT22;19795;53.160;6.612;2022-09-21T20:24:43;8.50;99.90
33460;DHT22;19795;53.160;6.612;2022-09-21T20:29:49;8.40;99.90
33460;DHT22;19795;53.160;6.612;2022-09-21T20:32:15;8.30;99.90
33460;DHT22;19795;53.160;6.612;2022-09-21T20:34:41;8.30;99.90
33460;DHT22;19795;53.160;6.612;2022-09-21T20:37:13;8.30;99.90
33460;DHT22;19795;53.160;6.612;2022-09-21T20:39:39;8.50;99.90
33460;DHT22;19795;53.160;6.612;2022-09-21T20:42:05;8.30;99.90
33460;DHT22;19795;53.160;6.612;2022-09-21T20:44:30;8.20;99.90
33460;DHT22;19795;53.160;6.612;2022-09-21T20:46:56;8.20;99.90
33460;DHT22;19795;53.160;6.612;2022-09-21T20:49:22;8.10;99.90
33460;DHT22;19795;53.160;6.612;2022-09-21T20:51:47;8.10;99.90
33460;DHT22;19795;53.160;6.612;2022-09-21T20:54:13;8.00;99.90
33460;DHT22;19795;53.160;6.612;2022-09-21T20:56:39;8.10;99.90
33460;DHT22;19795;53.160;6.612;2022-09-21T20:59:05;8.00;99.90
33460;DHT22;19795;53.160;6.612;2022-09-21T21:01:30;8.00;99.90
33460;DHT22;19795;53.160;6.612;2022-09-21T21:03:57;7.90;99.90
33460;DHT22;19795;53.160;6.612;2022-09-21T21:06:27;7.90;99.90
33460;DHT22;19795;53.160;6.612;2022-09-21T21:08:55;7.80;99.90
33460;DHT22;19795;53.160;6.612;2022-09-21T21:11:21;8.00;99.90
